createdAt,value
2023-07-01T00:00:52.775Z,22.38
2023-07-01T00:02:54.527Z,22.37
2023-07-01T00:04:56.130Z,22.37
2023-07-01T00:06:57.707Z,22.38
2023-07-01T00:08:59.608Z,22.36
2023-07-01T00:11:01.803Z,22.35
2023-07-01T00:13:03.933Z,22.37
2023-07-01T00:15:05.739Z,22.35
2023-07-01T00:17:10.560Z,22.33
2023-07-01T00:19:12.090Z,22.32
2023-07-01T00:21:13.587Z,22.31
2023-07-01T00:23:15.255Z,22.32
2023-07-01T00:25:16.767Z,22.31
2023-07-01T00:27:18.299Z,22.31
2023-07-01T00:29:19.912Z,22.30
2023-07-01T00:31:21.478Z,22.29
2023-07-01T00:33:23.131Z,22.29
2023-07-01T00:35:24.851Z,22.29
2023-07-01T00:37:26.315Z,22.29
2023-07-01T00:39:27.792Z,22.28
2023-07-01T00:41:29.269Z,22.27
2023-07-01T00:43:30.834Z,22.26
2023-07-01T00:45:32.386Z,22.25
2023-07-01T00:47:33.997Z,22.27
2023-07-01T00:49:35.697Z,22.26
2023-07-01T00:51:37.397Z,22.25
2023-07-01T00:53:40.476Z,22.23
2023-07-01T00:55:42.098Z,22.23
2023-07-01T00:57:43.677Z,22.24
2023-07-01T00:59:45.213Z,22.24
2023-07-01T01:01:50.778Z,22.21
2023-07-01T01:04:02.658Z,22.21
2023-07-01T01:06:08.099Z,22.21
2023-07-01T01:08:12.763Z,22.21
2023-07-01T01:10:16.785Z,22.21
2023-07-01T01:12:20.266Z,22.20
2023-07-01T01:14:22.750Z,22.20
2023-07-01T01:16:24.399Z,22.21
2023-07-01T01:18:29.566Z,22.20
2023-07-01T01:20:32.272Z,22.20
2023-07-01T01:22:43.630Z,22.18
2023-07-01T01:24:58.481Z,22.17
2023-07-01T01:27:00.514Z,22.15
2023-07-01T01:29:02.354Z,22.15
2023-07-01T01:31:04.287Z,22.14
2023-07-01T01:33:07.195Z,22.12
2023-07-01T01:35:08.808Z,22.13
2023-07-01T01:37:33.478Z,22.14
2023-07-01T01:39:39.860Z,22.12
2023-07-01T01:42:03.093Z,22.10
2023-07-01T01:44:08.836Z,22.09
2023-07-01T01:46:11.107Z,22.09
2023-07-01T01:48:13.650Z,22.08
2023-07-01T01:50:17.278Z,22.08
2023-07-01T01:52:19.569Z,22.08
2023-07-01T01:54:22.206Z,22.08
2023-07-01T01:56:24.456Z,22.08
2023-07-01T01:58:26.162Z,22.07
2023-07-01T02:00:27.902Z,22.07
2023-07-01T02:02:29.521Z,22.06
2023-07-01T02:04:31.358Z,22.07
2023-07-01T02:06:33.084Z,22.07
2023-07-01T02:08:34.636Z,22.06
2023-07-01T02:10:36.206Z,22.04
2023-07-01T02:12:37.680Z,22.05
2023-07-01T02:14:39.598Z,22.02
2023-07-01T02:16:41.107Z,22.04
2023-07-01T02:18:42.651Z,22.02
2023-07-01T02:20:44.393Z,22.04
2023-07-01T02:22:46.078Z,22.02
2023-07-01T02:24:47.570Z,22.02
2023-07-01T02:26:51.239Z,22.00
2023-07-01T02:28:53.057Z,22.01
2023-07-01T02:30:55.473Z,22.00
2023-07-01T02:32:57.166Z,22.00
2023-07-01T02:34:58.676Z,22.00
2023-07-01T02:37:00.200Z,21.99
2023-07-01T02:39:01.743Z,21.99
2023-07-01T02:41:03.653Z,21.99
2023-07-01T02:43:05.151Z,21.99
2023-07-01T02:45:06.971Z,21.99
2023-07-01T02:47:08.806Z,21.99
2023-07-01T02:49:10.475Z,21.98
2023-07-01T02:51:11.945Z,21.97
2023-07-01T02:53:13.463Z,21.97
2023-07-01T02:55:15.221Z,21.97
2023-07-01T02:57:16.800Z,21.98
2023-07-01T02:59:18.457Z,21.98
2023-07-01T03:01:19.941Z,21.96
2023-07-01T03:03:21.758Z,21.97
2023-07-01T03:05:24.601Z,21.97
2023-07-01T03:07:26.121Z,21.96
2023-07-01T03:09:28.076Z,21.98
2023-07-01T03:11:29.576Z,21.95
2023-07-01T03:13:31.076Z,21.96
2023-07-01T03:15:32.599Z,21.96
2023-07-01T03:17:34.364Z,21.96
2023-07-01T03:19:35.917Z,21.96
2023-07-01T03:21:37.707Z,21.98
2023-07-01T03:23:39.250Z,21.98
2023-07-01T03:25:41.451Z,21.97
2023-07-01T03:27:43.521Z,21.97
2023-07-01T03:29:45.260Z,21.96
2023-07-01T03:31:48.994Z,21.95
2023-07-01T03:33:50.613Z,21.96
2023-07-01T03:35:52.371Z,21.96
2023-07-01T03:37:53.935Z,21.94
2023-07-01T03:39:55.448Z,21.93
2023-07-01T03:41:56.992Z,21.93
2023-07-01T03:43:58.463Z,21.93
2023-07-01T03:46:00.190Z,21.92
2023-07-01T03:48:01.814Z,21.93
2023-07-01T03:50:03.443Z,21.92
2023-07-01T03:52:05.270Z,21.92
2023-07-01T03:54:07.250Z,21.90
2023-07-01T04:00:19.890Z,21.90
2023-07-01T04:02:21.473Z,21.90
2023-07-01T04:04:23.016Z,21.89
2023-07-01T04:06:24.589Z,21.89
2023-07-01T04:08:26.057Z,21.90
2023-07-01T04:10:27.808Z,21.75
2023-07-01T04:12:30.452Z,21.90
2023-07-01T04:14:31.918Z,21.90
2023-07-01T04:16:34.239Z,21.88
2023-07-01T04:18:36.237Z,21.88
2023-07-01T04:20:37.759Z,21.88
2023-07-01T04:22:39.624Z,21.85
2023-07-01T04:24:41.186Z,21.87
2023-07-01T04:26:44.987Z,21.86
2023-07-01T04:28:46.465Z,21.85
2023-07-01T04:30:48.085Z,21.85
2023-07-01T04:32:50.350Z,21.85
2023-07-01T04:34:51.905Z,21.85
2023-07-01T04:36:53.463Z,21.85
2023-07-01T04:38:55.032Z,21.85
2023-07-01T04:40:56.601Z,21.85
2023-07-01T04:42:58.137Z,21.84
2023-07-01T04:44:59.683Z,21.84
2023-07-01T04:47:01.418Z,21.84
2023-07-01T04:49:03.161Z,21.84
2023-07-01T04:51:04.694Z,21.83
2023-07-01T04:53:06.243Z,21.84
2023-07-01T04:55:07.954Z,21.83
2023-07-01T04:57:09.548Z,21.83
2023-07-01T04:59:11.036Z,21.83
2023-07-01T05:01:12.575Z,21.83
2023-07-01T05:03:14.350Z,21.83
2023-07-01T05:05:16.030Z,21.83
2023-07-01T05:07:18.842Z,21.83
2023-07-01T05:09:20.406Z,21.84
2023-07-01T05:11:21.885Z,21.83
2023-07-01T05:13:23.423Z,21.82
2023-07-01T05:15:24.945Z,21.83
2023-07-01T05:17:26.453Z,21.82
2023-07-01T05:19:28.073Z,21.83
2023-07-01T05:21:32.603Z,21.83
2023-07-01T05:23:34.291Z,21.83
2023-07-01T05:25:35.926Z,21.82
2023-07-01T05:27:37.440Z,21.81
2023-07-01T05:29:39.000Z,21.83
2023-07-01T05:31:40.711Z,21.84
2023-07-01T05:33:46.167Z,21.97
2023-07-01T05:35:47.732Z,22.08
2023-07-01T05:37:49.286Z,22.16
2023-07-01T05:44:04.942Z,22.29
2023-07-01T05:46:06.742Z,22.32
2023-07-01T05:48:08.507Z,22.25
2023-07-01T05:50:10.194Z,22.21
2023-07-01T05:54:18.168Z,22.13
2023-07-01T05:56:19.695Z,22.10
2023-07-01T05:58:21.248Z,22.07
2023-07-01T06:00:23.184Z,22.06
2023-07-01T06:02:24.680Z,22.04
2023-07-01T06:06:32.664Z,22.01
2023-07-01T06:08:34.204Z,22.01
2023-07-01T06:10:35.760Z,21.99
2023-07-01T06:12:37.358Z,21.98
2023-07-01T06:18:51.774Z,21.94
2023-07-01T06:20:53.242Z,21.94
2023-07-01T06:22:54.694Z,21.93
2023-07-01T06:24:56.199Z,21.92
2023-07-01T06:31:11.228Z,21.92
2023-07-01T06:33:12.830Z,21.91
2023-07-01T06:39:22.173Z,21.90
2023-07-01T06:41:23.648Z,21.90
2023-07-01T06:43:25.183Z,21.91
2023-07-01T06:45:26.620Z,21.90
2023-07-01T06:47:28.275Z,21.91
2023-07-01T06:49:29.819Z,21.91
2023-07-01T06:53:40.983Z,21.90
2023-07-01T06:55:42.711Z,21.91
2023-07-01T06:57:44.165Z,21.90
2023-07-01T06:59:45.661Z,21.91
2023-07-01T07:01:47.320Z,21.90
2023-07-01T07:03:48.918Z,21.91
2023-07-01T07:05:53.262Z,21.91
2023-07-01T07:07:54.796Z,21.91
2023-07-01T07:09:56.236Z,21.92
2023-07-01T07:11:57.833Z,21.90
2023-07-01T07:13:59.449Z,21.92
2023-07-01T07:16:00.991Z,21.91
2023-07-01T07:18:02.802Z,21.90
2023-07-01T07:20:04.498Z,21.90
2023-07-01T07:22:06.721Z,21.90
2023-07-01T07:24:08.616Z,21.91
2023-07-01T07:26:10.089Z,21.91
2023-07-01T07:28:11.632Z,21.91
2023-07-01T07:30:14.339Z,21.91
2023-07-01T07:32:16.064Z,21.92
2023-07-01T07:34:17.742Z,21.93
2023-07-01T07:36:19.212Z,21.92
2023-07-01T07:38:20.651Z,21.93
2023-07-01T07:40:22.119Z,21.91
2023-07-01T07:42:23.620Z,21.94
2023-07-01T07:44:25.684Z,21.93
2023-07-01T07:46:27.268Z,21.92
2023-07-01T07:48:28.823Z,21.94
2023-07-01T07:50:30.370Z,21.93
2023-07-01T07:54:33.532Z,21.94
2023-07-01T07:56:34.981Z,21.93
2023-07-01T08:00:42.886Z,21.94
2023-07-01T08:02:47.207Z,21.93
2023-07-01T08:04:49.023Z,21.93
2023-07-01T08:06:50.695Z,21.93
2023-07-01T08:08:52.218Z,21.93
2023-07-01T08:10:54.234Z,21.95
2023-07-01T08:12:55.728Z,21.94
2023-07-01T08:14:57.178Z,21.96
2023-07-01T08:17:01.759Z,21.96
2023-07-01T08:19:03.704Z,21.97
2023-07-01T08:21:05.595Z,21.96
2023-07-01T08:23:07.143Z,21.97
2023-07-01T08:27:15.053Z,21.99
2023-07-01T08:29:16.607Z,21.99
2023-07-01T08:31:18.372Z,21.99
2023-07-01T08:33:19.914Z,21.99
2023-07-01T08:35:21.498Z,21.97
2023-07-01T08:37:23.120Z,21.98
2023-07-01T08:39:26.081Z,22.02
2023-07-01T08:41:29.009Z,22.02
2023-07-01T08:43:31.556Z,22.04
2023-07-01T08:45:34.027Z,22.07
2023-07-01T08:47:50.984Z,22.07
2023-07-01T08:49:55.102Z,22.09
2023-07-01T08:52:05.967Z,22.12
2023-07-01T08:54:07.819Z,22.15
2023-07-01T08:56:10.063Z,22.17
2023-07-01T08:58:11.721Z,22.22
2023-07-01T09:00:16.204Z,22.27
2023-07-01T09:04:24.637Z,22.34
2023-07-01T09:06:26.309Z,22.38
2023-07-01T09:08:27.821Z,22.41
2023-07-01T09:10:29.334Z,22.45
2023-07-01T09:12:30.963Z,22.37
2023-07-01T09:14:51.043Z,22.48
2023-07-01T09:16:52.706Z,22.52
2023-07-01T09:19:03.261Z,22.52
2023-07-01T09:21:16.907Z,22.54
2023-07-01T09:23:40.878Z,22.55
2023-07-01T09:25:42.825Z,22.57
2023-07-01T09:27:48.387Z,22.58
2023-07-01T09:29:50.003Z,22.58
2023-07-01T09:31:53.093Z,22.59
2023-07-01T09:34:04.292Z,22.58
2023-07-01T09:36:06.752Z,22.53
2023-07-01T09:38:08.297Z,22.46
2023-07-01T09:40:19.507Z,22.41
2023-07-01T09:42:21.090Z,22.33
2023-07-01T09:44:22.747Z,22.30
2023-07-01T09:46:24.989Z,22.26
2023-07-01T09:48:27.106Z,22.18
2023-07-01T09:50:30.738Z,22.26
2023-07-01T09:52:33.024Z,22.27
2023-07-01T09:58:43.062Z,22.22
2023-07-01T10:00:45.861Z,22.18
2023-07-01T10:02:49.094Z,22.18
2023-07-01T10:04:54.392Z,22.18
2023-07-01T10:11:16.047Z,22.23
2023-07-01T10:13:17.528Z,22.24
2023-07-01T10:15:24.961Z,22.27
2023-07-01T10:17:44.362Z,22.27
2023-07-01T10:19:47.993Z,22.26
2023-07-01T10:21:49.552Z,22.23
2023-07-01T10:23:51.863Z,22.21
2023-07-01T10:25:53.341Z,22.23
2023-07-01T10:28:00.994Z,22.24
2023-07-01T10:30:02.598Z,22.24
2023-07-01T10:32:10.497Z,22.26
2023-07-01T10:34:11.980Z,22.25
2023-07-01T10:36:19.549Z,22.21
2023-07-01T10:38:22.807Z,22.17
2023-07-01T10:40:30.248Z,22.21
2023-07-01T10:42:32.947Z,22.22
2023-07-01T10:44:34.697Z,22.21
2023-07-01T10:48:43.933Z,22.24
2023-07-01T10:51:02.097Z,22.27
2023-07-01T10:55:32.956Z,22.32
2023-07-01T10:57:34.463Z,22.27
2023-07-01T10:59:35.988Z,22.28
2023-07-01T11:01:53.800Z,22.28
2023-07-01T11:03:55.685Z,22.28
2023-07-01T11:06:01.322Z,22.29
2023-07-01T11:08:11.743Z,22.32
2023-07-01T11:10:13.302Z,22.32
2023-07-01T11:12:14.985Z,22.36
2023-07-01T11:14:16.582Z,22.36
2023-07-01T11:16:21.543Z,22.38
2023-07-01T11:18:23.093Z,22.36
2023-07-01T11:20:24.606Z,22.32
2023-07-01T11:22:26.184Z,22.32
2023-07-01T11:24:28.020Z,22.34
2023-07-01T11:26:40.232Z,22.34
2023-07-01T11:28:41.779Z,22.33
2023-07-01T11:30:43.209Z,22.26
2023-07-01T11:32:44.803Z,22.27
2023-07-01T11:34:48.846Z,22.30
2023-07-01T11:36:51.503Z,22.28
2023-07-01T11:38:53.006Z,22.24
2023-07-01T11:40:55.098Z,22.29
2023-07-01T11:42:56.742Z,22.29
2023-07-01T11:45:04.616Z,22.33
2023-07-01T11:47:15.695Z,22.32
2023-07-01T11:49:24.291Z,22.32
2023-07-01T11:51:36.907Z,22.33
2023-07-01T11:53:55.820Z,22.36
2023-07-01T11:55:57.661Z,22.33
2023-07-01T11:57:59.324Z,22.34
2023-07-01T12:00:03.358Z,22.36
2023-07-01T12:02:04.910Z,22.34
2023-07-01T12:04:16.971Z,22.33
2023-07-01T12:06:19.160Z,22.32
2023-07-01T12:08:20.769Z,22.32
2023-07-01T12:10:22.620Z,22.30
2023-07-01T12:12:33.229Z,22.26
2023-07-01T12:14:35.184Z,22.27
2023-07-01T12:16:44.337Z,22.27
2023-07-01T12:18:46.215Z,22.34
2023-07-01T12:20:47.845Z,22.39
2023-07-01T12:22:51.434Z,22.42
2023-07-01T12:24:57.897Z,22.38
2023-07-01T12:27:02.165Z,22.39
2023-07-01T12:29:03.801Z,22.38
2023-07-01T12:31:05.375Z,22.34
2023-07-01T12:33:07.120Z,22.36
2023-07-01T12:35:08.745Z,22.36
2023-07-01T12:37:10.539Z,22.27
2023-07-01T12:39:12.421Z,22.26
2023-07-01T12:41:14.012Z,22.33
2023-07-01T12:43:15.505Z,22.34
2023-07-01T12:45:16.976Z,22.37
2023-07-01T12:47:20.585Z,22.33
2023-07-01T12:49:22.523Z,22.29
2023-07-01T12:51:24.027Z,22.20
2023-07-01T12:53:25.517Z,22.13
2023-07-01T12:55:27.101Z,22.26
2023-07-01T12:57:28.892Z,22.26
2023-07-01T12:59:30.435Z,22.31
2023-07-01T13:01:32.318Z,22.24
2023-07-01T13:03:36.857Z,22.25
2023-07-01T13:05:38.490Z,22.18
2023-07-01T13:07:40.232Z,22.25
2023-07-01T13:09:49.388Z,22.23
2023-07-01T13:11:52.171Z,22.23
2023-07-01T13:13:53.805Z,22.26
2023-07-01T13:15:55.322Z,22.31
2023-07-01T13:17:57.023Z,22.28
2023-07-01T13:19:58.545Z,22.17
2023-07-01T13:22:01.061Z,22.23
2023-07-01T13:24:04.598Z,22.27
2023-07-01T13:26:06.212Z,22.31
2023-07-01T13:28:07.958Z,22.37
2023-07-01T13:30:09.811Z,22.33
2023-07-01T13:32:11.643Z,22.36
2023-07-01T13:34:13.647Z,22.36
2023-07-01T13:36:16.948Z,22.39
2023-07-01T13:38:18.696Z,22.34
2023-07-01T13:40:23.445Z,22.20
2023-07-01T13:42:26.337Z,22.28
2023-07-01T13:44:28.293Z,22.26
2023-07-01T13:46:40.754Z,22.23
2023-07-01T13:48:44.048Z,22.29
2023-07-01T13:50:45.703Z,22.33
2023-07-01T13:52:48.042Z,22.38
2023-07-01T13:54:49.570Z,22.37
2023-07-01T13:56:57.180Z,22.34
2023-07-01T13:58:58.770Z,22.34
2023-07-01T14:01:01.083Z,22.34
2023-07-01T14:03:04.310Z,22.39
2023-07-01T14:05:06.566Z,22.43
2023-07-01T14:07:08.807Z,22.55
2023-07-01T14:09:21.046Z,22.65
2023-07-01T14:11:25.232Z,22.67
2023-07-01T14:13:30.084Z,22.61
2023-07-01T14:15:45.185Z,22.57
2023-07-01T14:17:47.411Z,22.62
2023-07-01T14:19:51.928Z,22.63
2023-07-01T14:21:54.537Z,22.57
2023-07-01T14:23:59.470Z,22.54
2023-07-01T14:26:01.479Z,22.51
2023-07-01T14:28:04.314Z,22.54
2023-07-01T14:30:14.734Z,22.50
2023-07-01T14:32:18.660Z,22.44
2023-07-01T14:34:34.531Z,22.49
2023-07-01T14:36:44.110Z,22.55
2023-07-01T14:38:46.638Z,22.55
2023-07-01T14:40:48.167Z,22.52
2023-07-01T14:42:49.658Z,22.52
2023-07-01T14:44:54.306Z,22.48
2023-07-01T14:46:55.807Z,22.53
2023-07-01T14:48:57.771Z,22.57
2023-07-01T14:50:59.236Z,22.57
2023-07-01T14:53:00.851Z,22.56
2023-07-01T14:55:02.484Z,22.55
2023-07-01T14:57:04.773Z,22.46
2023-07-01T14:59:06.309Z,22.47
2023-07-01T15:01:08.238Z,22.51
2023-07-01T15:03:10.128Z,22.58
2023-07-01T15:05:11.821Z,22.69
2023-07-01T15:07:13.437Z,22.82
2023-07-01T15:09:14.944Z,22.84
2023-07-01T15:11:17.154Z,22.90
2023-07-01T15:13:18.704Z,22.91
2023-07-01T15:15:20.140Z,22.96
2023-07-01T15:17:22.434Z,23.05
2023-07-01T15:19:24.043Z,23.13
2023-07-01T15:21:25.567Z,23.19
2023-07-01T15:23:27.117Z,23.17
2023-07-01T15:25:28.703Z,23.21
2023-07-01T15:27:30.203Z,23.18
2023-07-01T15:29:31.865Z,23.28
2023-07-01T15:31:33.447Z,23.34
2023-07-01T15:33:35.053Z,23.38
2023-07-01T15:35:37.489Z,23.44
2023-07-01T15:37:38.939Z,23.40
2023-07-01T15:39:40.540Z,23.34
2023-07-01T15:41:47.168Z,23.33
2023-07-01T15:43:49.684Z,23.25
2023-07-01T15:45:52.895Z,23.35
2023-07-01T15:47:54.532Z,23.31
2023-07-01T15:49:56.162Z,23.37
2023-07-01T15:51:57.580Z,23.26
2023-07-01T15:53:59.315Z,23.26
2023-07-01T15:56:00.881Z,23.32
2023-07-01T15:58:03.549Z,23.25
2023-07-01T16:00:05.551Z,23.24
2023-07-01T16:02:07.147Z,23.18
2023-07-01T16:04:08.818Z,23.24
2023-07-01T16:06:15.208Z,23.30
2023-07-01T16:08:17.179Z,23.38
2023-07-01T16:10:19.177Z,23.38
2023-07-01T16:12:30.513Z,23.37
2023-07-01T16:14:32.473Z,23.33
2023-07-01T16:18:46.385Z,23.39
2023-07-01T16:20:58.612Z,23.48
2023-07-01T16:23:03.076Z,23.31
2023-07-01T16:25:05.238Z,23.28
2023-07-01T16:27:06.838Z,23.34
2023-07-01T16:29:08.476Z,23.34
2023-07-01T16:31:14.170Z,23.36
2023-07-01T16:33:16.350Z,23.39
2023-07-01T16:35:36.740Z,23.48
2023-07-01T16:37:38.240Z,23.47
2023-07-01T16:39:46.235Z,23.39
2023-07-01T16:41:48.311Z,23.29
2023-07-01T16:43:54.067Z,23.33
2023-07-01T16:45:55.624Z,23.27
2023-07-01T16:47:58.591Z,23.21
2023-07-01T16:50:00.173Z,23.22
2023-07-01T16:52:02.860Z,23.29
2023-07-01T16:54:15.986Z,23.33
2023-07-01T16:56:17.454Z,23.37
2023-07-01T16:58:26.087Z,23.44
2023-07-01T17:00:28.000Z,23.44
2023-07-01T17:02:29.509Z,23.47
2023-07-01T17:04:31.883Z,23.41
2023-07-01T17:06:39.250Z,23.43
2023-07-01T17:08:40.875Z,23.43
2023-07-01T17:10:43.932Z,23.33
2023-07-01T17:12:45.496Z,23.32
2023-07-01T17:14:49.066Z,23.35
2023-07-01T17:16:50.698Z,23.26
2023-07-01T17:18:52.265Z,23.19
2023-07-01T17:20:54.544Z,23.19
2023-07-01T17:22:56.099Z,23.21
2023-07-01T17:24:57.587Z,23.31
2023-07-01T17:26:59.045Z,23.37
2023-07-01T17:29:00.519Z,23.38
2023-07-01T17:31:01.996Z,23.36
2023-07-01T17:33:03.544Z,23.25
2023-07-01T17:35:14.215Z,23.12
2023-07-01T17:37:15.717Z,23.09
2023-07-01T17:39:17.209Z,23.01
2023-07-01T17:41:18.694Z,22.95
2023-07-01T17:43:20.147Z,22.87
2023-07-01T17:45:22.300Z,22.86
2023-07-01T17:47:23.869Z,22.84
2023-07-01T17:49:25.476Z,22.82
2023-07-01T17:51:26.908Z,22.83
2023-07-01T17:53:28.435Z,22.86
2023-07-01T17:55:30.684Z,22.78
2023-07-01T17:57:34.168Z,22.78
2023-07-01T17:59:40.827Z,22.78
2023-07-01T18:01:42.442Z,22.76
2023-07-01T18:03:44.267Z,22.77
2023-07-01T18:05:46.161Z,22.78
2023-07-01T18:07:47.916Z,22.78
2023-07-01T18:09:49.520Z,22.76
2023-07-01T18:11:51.132Z,22.70
2023-07-01T18:13:52.641Z,22.68
2023-07-01T18:15:54.098Z,22.67
2023-07-01T18:17:55.658Z,22.65
2023-07-01T18:19:57.298Z,22.67
2023-07-01T18:21:58.837Z,22.70
2023-07-01T18:24:00.493Z,22.70
2023-07-01T18:26:04.024Z,22.62
2023-07-01T18:28:05.522Z,22.61
2023-07-01T18:30:13.402Z,22.62
2023-07-01T18:32:16.314Z,22.64
2023-07-01T18:34:19.319Z,22.62
2023-07-01T18:36:20.958Z,22.59
2023-07-01T18:38:22.812Z,22.59
2023-07-01T18:40:24.378Z,22.53
2023-07-01T18:42:25.817Z,22.53
2023-07-01T18:44:27.448Z,22.51
2023-07-01T18:46:29.180Z,22.50
2023-07-01T18:48:30.737Z,22.54
2023-07-01T18:50:32.265Z,22.49
2023-07-01T18:52:33.720Z,22.51
2023-07-01T18:54:35.321Z,22.52
2023-07-01T18:56:36.819Z,22.48
2023-07-01T18:58:38.376Z,22.47
2023-07-01T19:00:44.637Z,22.42
2023-07-01T19:02:46.197Z,22.46
2023-07-01T19:04:47.836Z,22.44
2023-07-01T19:06:49.346Z,22.43
2023-07-01T19:08:50.888Z,22.42
2023-07-01T19:10:52.354Z,22.43
2023-07-01T19:12:53.899Z,22.38
2023-07-01T19:14:55.401Z,22.41
2023-07-01T19:16:56.901Z,22.34
2023-07-01T19:18:58.359Z,22.33
2023-07-01T19:21:00.753Z,22.36
2023-07-01T19:23:02.372Z,22.37
2023-07-01T19:25:08.182Z,22.38
2023-07-01T19:27:10.318Z,22.37
2023-07-01T19:29:14.840Z,22.38
2023-07-01T19:31:16.526Z,22.35
2023-07-01T19:33:21.203Z,22.30
2023-07-01T19:35:22.612Z,22.31
2023-07-01T19:37:24.087Z,22.30
2023-07-01T19:39:26.078Z,22.30
2023-07-01T19:41:27.621Z,22.30
2023-07-01T19:43:29.591Z,22.28
2023-07-01T19:45:31.023Z,22.28
2023-07-01T19:47:38.392Z,22.24
2023-07-01T19:49:40.127Z,22.25
2023-07-01T19:51:41.627Z,22.27
2023-07-01T19:53:43.296Z,22.27
2023-07-01T19:55:45.768Z,22.26
2023-07-01T19:57:49.344Z,22.29
2023-07-01T19:59:50.901Z,22.27
2023-07-01T20:01:52.341Z,22.27
2023-07-01T20:03:53.826Z,22.23
2023-07-01T20:05:55.880Z,22.23
2023-07-01T20:07:57.645Z,22.22
2023-07-01T20:09:59.845Z,22.25
2023-07-01T20:12:01.569Z,22.24
2023-07-01T20:14:03.145Z,22.24
2023-07-01T20:16:04.836Z,22.19
2023-07-01T20:18:06.555Z,22.19
2023-07-01T20:20:08.640Z,22.20
2023-07-01T20:22:10.234Z,22.18
2023-07-01T20:24:11.826Z,22.15
2023-07-01T20:26:13.287Z,22.13
2023-07-01T20:28:15.307Z,22.15
2023-07-01T20:30:17.735Z,22.17
2023-07-01T20:32:19.964Z,22.18
2023-07-01T20:34:21.483Z,22.17
2023-07-01T20:36:22.965Z,22.17
2023-07-01T20:38:24.607Z,22.16
2023-07-01T20:40:26.725Z,22.16
2023-07-01T20:42:28.238Z,22.16
2023-07-01T20:44:29.942Z,22.18
2023-07-01T20:46:31.582Z,22.17
2023-07-01T20:48:33.159Z,22.15
2023-07-01T20:50:34.639Z,22.15
2023-07-01T20:52:36.047Z,22.16
2023-07-01T20:54:37.623Z,22.15
2023-07-01T20:56:39.125Z,22.14
2023-07-01T20:58:40.626Z,22.12
2023-07-01T21:00:42.097Z,22.09
2023-07-01T21:02:43.649Z,22.08
2023-07-01T21:04:47.125Z,22.09
2023-07-01T21:06:48.673Z,22.10
2023-07-01T21:08:51.913Z,22.06
2023-07-01T21:10:53.421Z,22.07
2023-07-01T21:12:54.971Z,22.04
2023-07-01T21:14:56.449Z,22.06
2023-07-01T21:16:57.967Z,22.06
2023-07-01T21:18:59.842Z,22.07
2023-07-01T21:21:01.359Z,22.08
2023-07-01T21:23:02.879Z,22.07
2023-07-01T21:25:05.004Z,22.07
2023-07-01T21:27:26.486Z,22.08
2023-07-01T21:29:28.687Z,22.09
2023-07-01T21:31:31.295Z,22.09
2023-07-01T21:33:32.851Z,22.09
2023-07-01T21:35:35.742Z,22.08
2023-07-01T21:37:37.306Z,22.08
2023-07-01T21:39:38.802Z,22.09
2023-07-01T21:41:41.432Z,22.08
2023-07-01T21:43:43.128Z,22.07
2023-07-01T21:45:44.962Z,22.07
2023-07-01T21:47:46.483Z,22.08
2023-07-01T21:49:47.943Z,22.07
2023-07-01T21:51:51.601Z,22.07
2023-07-01T21:56:00.312Z,22.06
2023-07-01T21:58:01.790Z,22.06
2023-07-01T22:00:05.140Z,22.06
2023-07-01T22:02:06.649Z,22.05
2023-07-01T22:06:15.870Z,22.06
2023-07-01T22:08:17.367Z,22.05
2023-07-01T22:10:20.097Z,22.05
2023-07-01T22:12:21.592Z,22.05
2023-07-01T22:14:23.097Z,22.05
2023-07-01T22:16:24.763Z,22.04
2023-07-01T22:18:26.307Z,22.05
2023-07-01T22:20:27.853Z,22.05
2023-07-01T22:22:29.341Z,22.04
2023-07-01T22:24:30.806Z,22.01
2023-07-01T22:28:42.050Z,21.99
2023-07-01T22:30:43.589Z,21.99
2023-07-01T22:32:45.198Z,21.99
2023-07-01T22:34:50.943Z,21.97
2023-07-01T22:36:52.532Z,21.96
2023-07-01T22:38:56.431Z,21.94
2023-07-01T22:40:58.518Z,21.93
2023-07-01T22:43:00.107Z,21.93
2023-07-01T22:45:02.058Z,21.92
2023-07-01T22:47:03.650Z,21.91
2023-07-01T22:49:05.103Z,21.91
2023-07-01T22:53:13.257Z,21.88
2023-07-01T22:55:14.805Z,21.86
2023-07-01T22:57:16.412Z,21.86
2023-07-01T22:59:17.901Z,21.86
2023-07-01T23:01:19.404Z,21.85
2023-07-01T23:05:27.420Z,21.81
2023-07-01T23:07:29.037Z,21.78
2023-07-01T23:09:30.559Z,21.77
2023-07-01T23:11:32.082Z,21.74
2023-07-01T23:15:40.904Z,21.74
2023-07-01T23:17:42.524Z,21.72
2023-07-01T23:19:44.119Z,21.69
2023-07-01T23:21:54.860Z,21.70
2023-07-01T23:23:57.890Z,21.73
2023-07-01T23:26:00.117Z,21.73
2023-07-01T23:28:10.637Z,21.70
2023-07-01T23:30:13.132Z,21.73
2023-07-01T23:32:30.153Z,21.73
2023-07-01T23:34:45.758Z,21.72
2023-07-01T23:36:52.340Z,21.69
2023-07-01T23:38:53.793Z,21.69
2023-07-01T23:40:56.332Z,21.68
2023-07-01T23:42:57.871Z,21.65
2023-07-01T23:44:59.588Z,21.65
2023-07-01T23:47:01.131Z,21.64
2023-07-01T23:49:03.676Z,21.61
2023-07-01T23:51:05.235Z,21.58
2023-07-01T23:53:06.780Z,21.54
2023-07-01T23:55:08.678Z,21.53
2023-07-01T23:57:10.216Z,21.58
2023-07-01T23:59:11.764Z,21.58
